Current | Forecast
Updated: 7:45 AM JST on June 25, 2018
Observed at Memambetsu, Japan
Temperature 50°F
Humidity 87%
Dew Point 46°F
Wind NNW at 4 mph
Pressure 29.80 in (Rising)
Conditions Mostly Cloudy
Visibility 6.2 miles
UV 2 out of 16
Clouds (FEW) : 700 ft
Mostly Cloudy (BKN) : 1000 ft
Yesterday's Maximum 64°F
Yesterday's Minimum 48°F approx.
Yesterday's Heating Degree Days 9 approx.
Sunrise3:43 AM JST
Sunset7:14 PM JST
Moon Rise4:19 PM JST
Moon Set1:50 AM JST
Moon PhaseMoon Phase
Waxing Gibbous
Raw METARSPECI RJCM 242245Z 34003KT 300V010 9999 FEW007 BKN010 10/08 Q1009 RMK 1ST007 7ST010 A2981


Monday
. High: 69° F.
Tuesday
. High: 69° F.
Wednesday
. High: 64° F.
Thursday
. High: 68° F.
Friday
. High: 59° F.
Saturday
. High: 62° F.
Sunday
. High: 51° F.
Monday
. High: 50° F.

Units: English | Metric

Find the Weather for any City, State or Zipcode, or Country:

U.S. State List | Severe Weather | Tropical Storms | Ski Conditions
United States | Canada | Central America | South America | Asia | Europe | Australia | Africa | Islands

Weather Underground

© Copyright 2018
The Weather Company, LLC